createdAt,value
2023-05-24T00:00:29.317Z,19.48
2023-05-24T00:01:02.780Z,18.20
2023-05-24T00:01:35.310Z,21.13
2023-05-24T00:02:08.341Z,22.08
2023-05-24T00:02:42.342Z,20.00
2023-05-24T00:03:16.579Z,18.17
2023-05-24T00:03:49.810Z,18.52
2023-05-24T00:04:22.922Z,17.48
2023-05-24T00:04:55.788Z,20.77
2023-05-24T00:05:31.601Z,18.75
2023-05-24T00:06:07.168Z,22.00
2023-05-24T00:06:39.736Z,20.25
2023-05-24T00:07:12.778Z,18.02
2023-05-24T00:07:45.084Z,21.05
2023-05-24T00:08:17.653Z,19.73
2023-05-24T00:08:50.064Z,21.17
2023-05-24T00:09:22.411Z,19.38
2023-05-24T00:09:54.791Z,18.40
2023-05-24T00:10:27.247Z,19.85
2023-05-24T00:10:59.807Z,18.38
2023-05-24T00:11:32.189Z,19.38
2023-05-24T00:12:04.736Z,20.50
2023-05-24T00:12:37.231Z,19.05
2023-05-24T00:13:09.542Z,18.58
2023-05-24T00:13:41.910Z,20.27
2023-05-24T00:14:14.544Z,22.97
2023-05-24T00:14:46.882Z,20.20
2023-05-24T00:15:19.218Z,20.65
2023-05-24T00:15:51.632Z,21.48
2023-05-24T00:16:24.108Z,22.00
2023-05-24T00:16:56.590Z,17.70
2023-05-24T00:17:30.472Z,20.83
2023-05-24T00:18:02.904Z,21.25
2023-05-24T00:18:35.319Z,19.73
2023-05-24T00:19:07.824Z,22.48
2023-05-24T00:19:40.409Z,19.57
2023-05-24T00:20:14.749Z,21.50
2023-05-24T00:20:47.617Z,20.25
2023-05-24T00:21:20.472Z,21.67
2023-05-24T00:21:52.837Z,21.77
2023-05-24T00:22:25.348Z,19.73
2023-05-24T00:22:57.802Z,20.52
2023-05-24T00:23:30.175Z,20.60
2023-05-24T00:24:02.550Z,21.17
2023-05-24T00:24:34.928Z,22.00
2023-05-24T00:25:07.800Z,19.67
2023-05-24T00:25:40.161Z,20.90
2023-05-24T00:26:12.494Z,23.35
2023-05-24T00:26:49.810Z,21.17
2023-05-24T00:27:22.196Z,21.80
2023-05-24T00:27:54.482Z,20.65
2023-05-24T00:28:27.083Z,21.13
2023-05-24T00:28:59.433Z,19.58
2023-05-24T00:29:32.429Z,20.08
2023-05-24T00:30:06.489Z,21.10
2023-05-24T00:30:39.826Z,21.40
2023-05-24T00:31:12.328Z,21.50
2023-05-24T00:31:44.727Z,21.02
2023-05-24T00:32:17.713Z,22.38
2023-05-24T00:32:50.164Z,23.02
2023-05-24T00:33:23.701Z,21.67
2023-05-24T00:33:57.960Z,22.00
2023-05-24T00:34:30.392Z,20.50
2023-05-24T00:35:03.476Z,20.70
2023-05-24T00:35:37.251Z,20.13
2023-05-24T00:36:09.871Z,20.43
2023-05-24T00:36:42.190Z,19.55
2023-05-24T00:37:15.513Z,20.15
2023-05-24T00:37:48.558Z,21.25
2023-05-24T00:38:21.650Z,21.10
2023-05-24T00:38:54.169Z,20.17
2023-05-24T00:39:26.956Z,20.35
2023-05-24T00:39:59.441Z,22.75
2023-05-24T00:40:31.784Z,22.42
2023-05-24T00:41:04.628Z,20.50
2023-05-24T00:41:36.967Z,20.77
2023-05-24T00:42:09.723Z,20.63
2023-05-24T00:42:42.107Z,21.45
2023-05-24T00:43:14.589Z,20.92
2023-05-24T00:43:46.945Z,20.90
2023-05-24T00:44:19.288Z,20.83
2023-05-24T00:44:51.802Z,20.10
2023-05-24T00:45:24.699Z,20.17
2023-05-24T00:46:17.114Z,19.40
2023-05-24T00:46:49.816Z,20.70
2023-05-24T00:47:22.691Z,21.43
2023-05-24T00:47:56.005Z,21.90
2023-05-24T00:48:29.035Z,20.40
2023-05-24T00:49:01.709Z,23.55
2023-05-24T00:49:35.223Z,21.88
2023-05-24T00:50:08.049Z,19.63
2023-05-24T00:50:41.658Z,20.80
2023-05-24T00:51:15.105Z,21.60
2023-05-24T00:51:47.877Z,21.63
2023-05-24T00:52:20.338Z,21.13
2023-05-24T00:52:52.771Z,22.27
2023-05-24T00:53:25.243Z,20.17
2023-05-24T00:53:57.721Z,20.48
2023-05-24T00:54:30.838Z,21.15
2023-05-24T00:55:03.394Z,22.10
2023-05-24T00:55:36.959Z,23.15
2023-05-24T00:56:09.971Z,21.58
2023-05-24T00:56:45.263Z,20.13
2023-05-24T00:57:19.161Z,22.80
2023-05-24T00:57:52.562Z,24.45
2023-05-24T00:58:27.403Z,19.67
2023-05-24T00:59:00.281Z,20.75
2023-05-24T00:59:33.304Z,22.75
2023-05-24T01:00:08.306Z,20.85
2023-05-24T01:00:43.095Z,19.85
2023-05-24T01:01:15.569Z,18.88
2023-05-24T01:01:48.023Z,20.10
2023-05-24T01:02:21.118Z,20.52
2023-05-24T01:02:55.533Z,20.27
2023-05-24T01:03:31.953Z,18.75
2023-05-24T01:04:05.814Z,21.70
2023-05-24T01:04:38.207Z,21.67
2023-05-24T01:05:14.036Z,23.05
2023-05-24T01:05:46.715Z,19.85
2023-05-24T01:06:19.256Z,20.95
2023-05-24T01:06:58.031Z,17.60
2023-05-24T01:07:30.400Z,20.23
2023-05-24T01:08:10.133Z,19.90
2023-05-24T01:08:46.170Z,20.23
2023-05-24T01:09:18.571Z,20.35
2023-05-24T01:09:55.745Z,20.50
2023-05-24T01:10:28.141Z,20.27
2023-05-24T01:11:04.825Z,19.85
2023-05-24T01:11:43.059Z,23.05
2023-05-24T01:12:24.496Z,20.05
2023-05-24T01:13:03.792Z,21.17
2023-05-24T01:13:54.422Z,22.70
2023-05-24T01:14:40.666Z,21.48
2023-05-24T01:15:13.151Z,21.70
2023-05-24T01:15:46.065Z,21.23
2023-05-24T01:16:33.284Z,22.10
2023-05-24T01:17:27.560Z,21.42
2023-05-24T01:18:01.930Z,24.10
2023-05-24T01:18:55.123Z,23.33
2023-05-24T01:19:46.430Z,24.50
2023-05-24T01:20:19.834Z,22.83
2023-05-24T01:20:55.765Z,21.42
2023-05-24T01:21:30.712Z,22.27
2023-05-24T01:22:14.417Z,22.52
2023-05-24T01:22:46.708Z,20.83
2023-05-24T01:23:27.058Z,26.07
2023-05-24T01:24:02.505Z,22.70
2023-05-24T01:24:44.411Z,22.17
2023-05-24T01:25:23.917Z,22.90
2023-05-24T01:26:15.303Z,21.80
2023-05-24T01:26:56.342Z,24.30
2023-05-24T01:27:29.165Z,24.75
2023-05-24T01:28:04.861Z,22.20
2023-05-24T01:28:38.926Z,19.15
2023-05-24T01:29:11.878Z,21.25
2023-05-24T01:29:44.673Z,22.00
2023-05-24T01:30:17.329Z,21.88
2023-05-24T01:30:49.839Z,20.52
2023-05-24T01:31:23.013Z,24.60
2023-05-24T01:31:55.547Z,19.98
2023-05-24T01:32:28.653Z,21.63
2023-05-24T01:33:01.186Z,20.23
2023-05-24T01:33:33.588Z,21.05
2023-05-24T01:34:06.557Z,19.52
2023-05-24T01:34:38.955Z,21.88
2023-05-24T01:35:11.451Z,21.77
2023-05-24T01:35:43.940Z,20.05
2023-05-24T01:36:18.699Z,20.65
2023-05-24T01:36:51.135Z,22.02
2023-05-24T01:37:23.443Z,22.58
2023-05-24T01:37:56.206Z,21.13
2023-05-24T01:38:28.654Z,19.67
2023-05-24T01:39:01.541Z,23.23
2023-05-24T01:39:33.981Z,22.95
2023-05-24T01:40:06.785Z,22.30
2023-05-24T01:40:39.489Z,21.47
2023-05-24T01:41:33.001Z,24.10
2023-05-24T01:42:08.086Z,20.65
2023-05-24T01:42:52.509Z,22.60
2023-05-24T01:43:32.529Z,22.25
2023-05-24T01:44:15.426Z,21.50
2023-05-24T01:44:59.696Z,22.10
2023-05-24T01:45:34.732Z,23.55
2023-05-24T01:46:12.258Z,23.98
2023-05-24T01:46:48.226Z,21.00
2023-05-24T01:47:27.569Z,23.37
2023-05-24T01:48:08.872Z,24.05
2023-05-24T01:48:54.957Z,23.17
2023-05-24T01:49:29.821Z,26.20
2023-05-24T01:50:11.259Z,27.50
2023-05-24T01:50:47.363Z,26.17
2023-05-24T01:51:23.009Z,29.15
2023-05-24T01:52:00.432Z,26.33
2023-05-24T01:52:33.968Z,24.60
2023-05-24T01:53:09.377Z,25.27
2023-05-24T01:53:46.842Z,23.73
2023-05-24T01:54:21.328Z,26.08
2023-05-24T01:54:57.060Z,25.52
2023-05-24T01:55:30.125Z,24.92
2023-05-24T01:56:03.247Z,25.63
2023-05-24T01:56:36.203Z,25.30
2023-05-24T01:57:10.448Z,25.65
2023-05-24T01:57:44.357Z,26.65
2023-05-24T01:58:16.999Z,25.23
2023-05-24T01:58:50.889Z,27.77
2023-05-24T01:59:24.348Z,27.10
2023-05-24T01:59:58.862Z,23.08
2023-05-24T02:00:31.761Z,27.08
2023-05-24T02:01:04.260Z,24.27
2023-05-24T02:01:36.871Z,24.58
2023-05-24T02:02:09.729Z,25.33
2023-05-24T02:02:42.259Z,22.48
2023-05-24T02:03:14.976Z,21.92
2023-05-24T02:03:47.536Z,24.52
2023-05-24T02:04:19.952Z,24.38
2023-05-24T02:04:52.346Z,23.50
2023-05-24T02:05:25.100Z,23.42
2023-05-24T02:05:57.422Z,23.40
2023-05-24T02:06:29.796Z,25.75
2023-05-24T02:07:02.154Z,23.35
2023-05-24T02:07:34.495Z,27.58
2023-05-24T02:08:07.359Z,26.77
2023-05-24T02:08:39.732Z,23.55
2023-05-24T02:09:12.242Z,23.30
2023-05-24T02:09:44.705Z,24.40
2023-05-24T02:10:18.879Z,23.83
2023-05-24T02:10:51.261Z,23.23
2023-05-24T02:11:23.851Z,24.95
2023-05-24T02:11:56.303Z,25.02
2023-05-24T02:12:29.060Z,23.73
2023-05-24T02:13:01.360Z,23.92
2023-05-24T02:13:33.690Z,22.92
2023-05-24T02:14:06.125Z,24.38
2023-05-24T02:14:39.331Z,22.30
2023-05-24T02:15:11.885Z,25.25
2023-05-24T02:15:45.089Z,24.70
2023-05-24T02:16:19.162Z,24.05
2023-05-24T02:16:51.546Z,24.13
2023-05-24T02:17:27.902Z,23.70
2023-05-24T02:18:01.864Z,24.10
2023-05-24T02:18:35.982Z,23.95
2023-05-24T02:19:11.293Z,24.98
2023-05-24T02:19:46.358Z,26.17
2023-05-24T02:20:18.803Z,23.90
2023-05-24T02:20:51.633Z,23.67
2023-05-24T02:21:24.529Z,25.70
2023-05-24T02:21:56.957Z,24.30
2023-05-24T02:22:29.413Z,23.75
2023-05-24T02:23:01.797Z,22.00
2023-05-24T02:23:34.346Z,23.50
2023-05-24T02:24:07.984Z,24.98
2023-05-24T02:24:40.650Z,24.30
2023-05-24T02:25:13.038Z,23.63
2023-05-24T02:25:45.682Z,24.55
2023-05-24T02:26:18.770Z,24.27
2023-05-24T02:26:51.061Z,25.97
2023-05-24T02:27:23.801Z,23.50
2023-05-24T02:27:56.428Z,25.90
2023-05-24T02:28:30.240Z,25.15
2023-05-24T02:29:02.842Z,24.65
2023-05-24T02:29:35.409Z,23.48
2023-05-24T02:30:08.249Z,23.02
2023-05-24T02:30:40.920Z,23.63
2023-05-24T02:31:13.724Z,24.30
2023-05-24T02:31:46.317Z,25.88
2023-05-24T02:32:18.881Z,25.20
2023-05-24T02:32:51.286Z,26.20
2023-05-24T02:33:25.799Z,23.45
2023-05-24T02:33:58.799Z,27.98
2023-05-24T02:34:31.356Z,23.90
2023-05-24T02:35:03.916Z,22.45
2023-05-24T02:35:36.409Z,23.52
2023-05-24T02:36:08.750Z,23.70
2023-05-24T02:36:41.146Z,23.73
2023-05-24T02:37:15.123Z,25.20
2023-05-24T02:37:47.571Z,23.33
2023-05-24T02:38:19.893Z,25.30
2023-05-24T02:38:52.344Z,23.45
2023-05-24T02:39:25.053Z,25.38
2023-05-24T02:39:57.462Z,24.50
2023-05-24T02:40:30.990Z,23.92
2023-05-24T02:41:03.783Z,25.17
2023-05-24T02:41:36.538Z,24.40
2023-05-24T02:42:09.591Z,24.80
2023-05-24T02:42:42.079Z,24.27
2023-05-24T02:43:14.550Z,23.77
2023-05-24T02:43:47.483Z,24.83
2023-05-24T02:44:20.269Z,23.73
2023-05-24T02:44:53.075Z,22.65
2023-05-24T02:45:25.596Z,23.50
2023-05-24T02:45:58.433Z,23.95
2023-05-24T02:46:30.933Z,24.98
2023-05-24T02:47:03.253Z,23.48
2023-05-24T02:47:35.844Z,24.65
2023-05-24T02:48:08.212Z,23.70
2023-05-24T02:48:41.227Z,24.53
2023-05-24T02:49:13.988Z,23.73
2023-05-24T02:49:46.313Z,23.02
2023-05-24T02:50:18.875Z,26.38
2023-05-24T02:50:51.201Z,25.25
2023-05-24T02:51:23.652Z,23.00
2023-05-24T02:51:56.495Z,22.42
2023-05-24T02:52:28.846Z,25.75
2023-05-24T02:53:01.818Z,25.25
2023-05-24T02:53:34.243Z,22.70
2023-05-24T02:54:06.793Z,23.40
2023-05-24T02:54:39.201Z,23.50
2023-05-24T02:55:11.527Z,23.15
2023-05-24T02:55:44.328Z,24.17
2023-05-24T02:56:18.160Z,26.10
2023-05-24T02:56:50.983Z,23.58
2023-05-24T02:57:23.746Z,28.00
2023-05-24T02:57:56.593Z,24.08
2023-05-24T02:58:30.691Z,22.58
2023-05-24T02:59:03.429Z,23.65
2023-05-24T02:59:36.536Z,23.90
2023-05-24T03:00:10.065Z,23.80
2023-05-24T03:00:43.929Z,23.50
2023-05-24T03:01:16.454Z,24.25
2023-05-24T03:01:48.930Z,22.85
2023-05-24T03:02:22.251Z,22.63
2023-05-24T03:02:55.863Z,23.45
2023-05-24T03:03:28.350Z,22.40
2023-05-24T03:04:01.416Z,23.85
2023-05-24T03:04:33.851Z,23.15
2023-05-24T03:05:06.576Z,23.57
2023-05-24T03:05:39.242Z,22.23
2023-05-24T03:06:14.257Z,23.75
2023-05-24T03:06:47.434Z,23.85
2023-05-24T03:07:22.269Z,24.42
2023-05-24T03:07:54.698Z,25.23
2023-05-24T03:08:27.381Z,23.48
2023-05-24T03:08:59.846Z,23.23
2023-05-24T03:09:32.574Z,22.45
2023-05-24T03:10:05.527Z,21.02
2023-05-24T03:10:37.911Z,22.83
2023-05-24T03:11:12.085Z,22.83
2023-05-24T03:11:47.052Z,23.77
2023-05-24T03:12:19.438Z,24.40
2023-05-24T03:12:51.933Z,20.85
2023-05-24T03:13:24.656Z,20.67
2023-05-24T03:13:57.016Z,21.83
2023-05-24T03:14:29.397Z,23.70
2023-05-24T03:15:01.720Z,21.55
2023-05-24T03:15:36.108Z,22.38
2023-05-24T03:16:08.706Z,24.37
2023-05-24T03:16:41.190Z,22.92
2023-05-24T03:17:13.527Z,22.17
2023-05-24T03:17:45.906Z,21.83
2023-05-24T03:18:18.383Z,23.10
2023-05-24T03:18:52.134Z,23.10
2023-05-24T03:19:24.532Z,21.98
2023-05-24T03:19:57.059Z,19.33
2023-05-24T03:20:29.510Z,23.08
2023-05-24T03:21:01.961Z,21.42
2023-05-24T03:21:34.313Z,23.53
2023-05-24T03:22:06.946Z,22.83
2023-05-24T03:22:39.320Z,22.23
2023-05-24T03:23:12.020Z,22.92
2023-05-24T03:23:44.407Z,24.27
2023-05-24T03:24:16.831Z,22.60
2023-05-24T03:24:49.398Z,24.02
2023-05-24T03:25:22.531Z,21.70
2023-05-24T03:25:54.967Z,23.80
2023-05-24T03:26:27.433Z,22.23
2023-05-24T03:26:59.965Z,22.03
2023-05-24T03:27:33.130Z,22.35
2023-05-24T03:28:05.775Z,22.90
2023-05-24T03:28:38.381Z,23.35
2023-05-24T03:29:11.107Z,23.33
2023-05-24T03:29:46.713Z,23.80
2023-05-24T03:30:19.993Z,22.13
2023-05-24T03:30:58.357Z,21.40
2023-05-24T03:31:31.037Z,21.75
2023-05-24T03:32:04.509Z,23.05
2023-05-24T03:32:36.981Z,23.43
2023-05-24T03:33:09.407Z,23.40
2023-05-24T03:33:41.973Z,23.08
2023-05-24T03:34:14.452Z,25.65
2023-05-24T03:34:47.263Z,24.08
2023-05-24T03:35:20.635Z,22.55
2023-05-24T03:35:53.637Z,22.15
2023-05-24T03:36:26.736Z,22.90
2023-05-24T03:36:59.844Z,24.05
2023-05-24T03:37:32.746Z,22.55
2023-05-24T03:38:05.100Z,21.70
2023-05-24T03:38:37.990Z,22.33
2023-05-24T03:39:10.492Z,23.38
2023-05-24T03:39:59.123Z,23.52
2023-05-24T03:40:48.846Z,25.40
2023-05-24T03:41:24.965Z,24.10
2023-05-24T03:41:57.363Z,23.65
2023-05-24T03:42:29.843Z,24.50
2023-05-24T03:43:04.380Z,22.38
2023-05-24T03:43:53.545Z,23.73
2023-05-24T03:44:28.692Z,24.00
2023-05-24T03:45:01.144Z,24.15
2023-05-24T03:45:39.298Z,23.33
2023-05-24T03:46:12.397Z,23.88
2023-05-24T03:46:46.993Z,22.85
2023-05-24T03:47:19.534Z,22.95
2023-05-24T03:47:53.427Z,23.95
2023-05-24T03:48:25.885Z,23.65
2023-05-24T03:48:58.370Z,23.25
2023-05-24T03:49:30.944Z,23.73
2023-05-24T03:50:03.566Z,24.33
2023-05-24T03:50:36.217Z,23.00
2023-05-24T03:51:09.515Z,24.13
2023-05-24T03:51:41.947Z,22.63
2023-05-24T03:52:14.468Z,23.50
2023-05-24T03:52:48.334Z,24.42
2023-05-24T03:53:22.966Z,22.42
2023-05-24T03:53:57.460Z,22.20
2023-05-24T03:54:31.216Z,22.63
2023-05-24T03:55:04.010Z,24.20
2023-05-24T03:55:36.379Z,25.30
2023-05-24T03:56:08.720Z,21.48
2023-05-24T03:56:41.076Z,22.75
2023-05-24T03:57:14.206Z,21.13
2023-05-24T03:57:47.275Z,22.90
2023-05-24T03:58:19.629Z,21.38
2023-05-24T03:58:52.561Z,20.77
2023-05-24T03:59:24.935Z,21.80
2023-05-24T03:59:57.292Z,21.90
2023-05-24T04:00:29.897Z,23.17
2023-05-24T04:01:02.613Z,20.93
2023-05-24T04:01:36.917Z,20.83
2023-05-24T04:02:09.329Z,23.20
2023-05-24T04:02:42.319Z,23.70
2023-05-24T04:03:15.033Z,22.90
2023-05-24T04:03:47.914Z,21.80
2023-05-24T04:04:20.649Z,22.77
2023-05-24T04:04:53.420Z,24.85
2023-05-24T04:05:30.085Z,22.02
2023-05-24T04:06:02.717Z,21.23
2023-05-24T04:06:36.998Z,23.17
2023-05-24T04:07:12.133Z,22.05
2023-05-24T04:07:46.600Z,22.98
2023-05-24T04:08:19.123Z,23.35
2023-05-24T04:08:52.934Z,20.88
2023-05-24T04:09:25.470Z,23.00
2023-05-24T04:09:57.839Z,23.20
2023-05-24T04:10:30.299Z,21.77
2023-05-24T04:11:02.674Z,23.20
2023-05-24T04:11:36.444Z,23.08
2023-05-24T04:12:09.177Z,22.33
2023-05-24T04:12:42.181Z,21.45
2023-05-24T04:13:14.656Z,22.15
2023-05-24T04:13:46.985Z,22.58
2023-05-24T04:14:19.361Z,21.30
2023-05-24T04:14:52.282Z,21.80
2023-05-24T04:15:25.070Z,20.83
2023-05-24T04:15:57.448Z,23.35
2023-05-24T04:16:29.844Z,21.05
2023-05-24T04:17:04.687Z,21.02
2023-05-24T04:17:38.727Z,23.90
2023-05-24T04:18:12.483Z,21.35
2023-05-24T04:18:45.831Z,22.02
2023-05-24T04:19:18.327Z,23.08
2023-05-24T04:19:53.641Z,22.50
2023-05-24T04:20:27.787Z,22.58
2023-05-24T04:21:00.489Z,24.52
2023-05-24T04:21:33.557Z,21.60
2023-05-24T04:22:05.950Z,21.48
2023-05-24T04:22:38.461Z,22.98
2023-05-24T04:23:11.266Z,23.17
2023-05-24T04:23:44.110Z,22.23
2023-05-24T04:24:16.586Z,22.55
2023-05-24T04:24:49.877Z,21.33
2023-05-24T04:25:22.557Z,23.33
2023-05-24T04:25:55.088Z,23.15
2023-05-24T04:26:27.955Z,22.25
2023-05-24T04:27:00.283Z,22.55
2023-05-24T04:27:32.765Z,20.92
2023-05-24T04:28:06.410Z,24.75
2023-05-24T04:28:39.174Z,22.47
2023-05-24T04:29:11.505Z,21.83
2023-05-24T04:29:46.165Z,21.63
2023-05-24T04:30:18.492Z,21.83
2023-05-24T04:30:51.871Z,23.17
2023-05-24T04:31:24.704Z,21.15
2023-05-24T04:31:57.653Z,20.13
2023-05-24T04:32:30.826Z,23.20
2023-05-24T04:33:03.953Z,21.88
2023-05-24T04:33:37.143Z,22.30
2023-05-24T04:34:10.141Z,22.43
2023-05-24T04:34:43.072Z,22.00
2023-05-24T04:35:17.663Z,23.83
2023-05-24T04:35:50.215Z,22.48
2023-05-24T04:36:24.052Z,22.25
2023-05-24T04:36:56.482Z,22.17
2023-05-24T04:37:29.597Z,21.95
2023-05-24T04:38:02.803Z,23.38
2023-05-24T04:38:36.723Z,21.63
2023-05-24T04:39:09.251Z,20.42
2023-05-24T04:39:41.863Z,21.87
2023-05-24T04:40:14.286Z,20.88
2023-05-24T04:40:46.675Z,21.15
2023-05-24T04:41:19.001Z,21.50
2023-05-24T04:41:52.202Z,18.80
2023-05-24T04:42:24.543Z,20.38
2023-05-24T04:42:56.903Z,22.98
2023-05-24T04:43:29.400Z,21.75
2023-05-24T04:44:01.946Z,21.67
2023-05-24T04:44:34.310Z,23.52
2023-05-24T04:45:07.282Z,22.73
2023-05-24T04:45:39.729Z,21.10
2023-05-24T04:46:12.343Z,19.35
2023-05-24T04:46:44.879Z,19.77
2023-05-24T04:47:17.995Z,20.10
2023-05-24T04:47:50.311Z,18.02
2023-05-24T04:48:24.817Z,18.45
2023-05-24T04:48:57.286Z,17.35
2023-05-24T04:49:29.940Z,17.55
2023-05-24T04:50:02.267Z,17.55
2023-05-24T04:50:35.939Z,19.43
2023-05-24T04:51:08.527Z,19.25
2023-05-24T04:51:41.357Z,20.13
2023-05-24T04:52:14.141Z,20.67
2023-05-24T04:52:47.173Z,17.45
2023-05-24T04:53:20.076Z,17.05
2023-05-24T04:53:52.500Z,18.83
2023-05-24T04:54:24.934Z,17.60
2023-05-24T04:54:58.305Z,19.17
2023-05-24T04:55:30.698Z,18.10
2023-05-24T04:56:03.039Z,18.43
2023-05-24T04:56:36.411Z,17.98
2023-05-24T04:57:09.025Z,17.60
2023-05-24T04:57:41.511Z,19.17
2023-05-24T04:58:14.146Z,19.52
2023-05-24T04:58:46.892Z,18.88
2023-05-24T04:59:19.231Z,18.33
2023-05-24T04:59:51.549Z,19.98
2023-05-24T05:00:23.981Z,19.67
2023-05-24T05:00:56.462Z,17.48
2023-05-24T05:01:29.369Z,18.40
2023-05-24T05:02:01.815Z,18.90
2023-05-24T05:02:34.745Z,18.00
2023-05-24T05:03:07.356Z,18.38
2023-05-24T05:03:39.981Z,17.60
2023-05-24T05:04:12.477Z,20.25
2023-05-24T05:04:45.331Z,17.85
2023-05-24T05:05:17.842Z,18.92
2023-05-24T05:05:50.249Z,18.25
2023-05-24T05:06:22.588Z,19.40
2023-05-24T05:06:55.785Z,18.60
2023-05-24T05:07:28.086Z,18.63
2023-05-24T05:08:00.661Z,18.38
2023-05-24T05:08:33.408Z,17.95
2023-05-24T05:09:14.363Z,18.90
2023-05-24T05:09:46.998Z,17.42
2023-05-24T05:10:20.263Z,19.95
2023-05-24T05:10:53.841Z,17.30
2023-05-24T05:11:26.316Z,18.38
2023-05-24T05:11:58.768Z,17.58
2023-05-24T05:12:31.098Z,18.90
2023-05-24T05:13:03.615Z,18.10
2023-05-24T05:13:36.264Z,19.10
2023-05-24T05:14:12.013Z,19.05
2023-05-24T05:14:44.600Z,18.50
2023-05-24T05:15:16.922Z,19.75
2023-05-24T05:15:49.400Z,18.83
2023-05-24T05:16:21.744Z,17.58
2023-05-24T05:16:54.213Z,18.05
2023-05-24T05:17:26.759Z,18.20
2023-05-24T05:17:59.407Z,18.30
2023-05-24T05:18:32.216Z,18.92
2023-05-24T05:19:05.462Z,18.13
2023-05-24T05:19:37.928Z,20.10
2023-05-24T05:20:10.573Z,19.40
2023-05-24T05:20:43.121Z,17.13
2023-05-24T05:21:16.160Z,17.70
2023-05-24T05:21:48.684Z,16.35
2023-05-24T05:22:21.052Z,17.05
2023-05-24T05:22:53.424Z,17.40
2023-05-24T05:23:25.803Z,17.03
2023-05-24T05:23:58.133Z,16.80
2023-05-24T05:24:30.441Z,15.05
2023-05-24T05:25:02.769Z,16.98
2023-05-24T05:25:36.185Z,16.98
2023-05-24T05:26:08.594Z,17.10
2023-05-24T05:26:41.977Z,16.80
2023-05-24T05:27:14.284Z,16.95
2023-05-24T05:27:47.025Z,17.13
2023-05-24T05:28:19.425Z,18.75
2023-05-24T05:28:51.796Z,15.40
2023-05-24T05:29:24.678Z,16.20
2023-05-24T05:29:57.172Z,15.90
2023-05-24T05:30:29.518Z,16.17
2023-05-24T05:31:01.890Z,19.02
2023-05-24T05:31:34.530Z,17.70
2023-05-24T05:32:07.066Z,14.75
2023-05-24T05:32:39.523Z,15.48
2023-05-24T05:33:12.168Z,16.33
2023-05-24T05:33:44.908Z,16.40
2023-05-24T05:34:17.240Z,15.77
2023-05-24T05:34:49.647Z,16.38
2023-05-24T05:35:22.063Z,16.67
2023-05-24T05:35:55.174Z,17.10
2023-05-24T05:36:27.934Z,16.40
2023-05-24T05:37:00.505Z,15.75
2023-05-24T05:37:32.902Z,14.95
2023-05-24T05:38:05.247Z,16.05
2023-05-24T05:38:37.784Z,18.38
2023-05-24T05:39:10.230Z,17.17
2023-05-24T05:39:42.528Z,15.70
2023-05-24T05:40:14.891Z,15.68
2023-05-24T05:40:47.715Z,17.60
2023-05-24T05:41:20.038Z,15.50
2023-05-24T05:41:52.518Z,15.15
2023-05-24T05:42:24.918Z,15.88
2023-05-24T05:42:57.267Z,17.05
2023-05-24T05:43:29.767Z,15.30
2023-05-24T05:44:02.550Z,17.38
2023-05-24T05:44:34.852Z,15.50
2023-05-24T05:45:07.564Z,14.90
2023-05-24T05:45:40.083Z,15.27
2023-05-24T05:46:14.706Z,16.17
2023-05-24T05:46:47.106Z,16.48
2023-05-24T05:47:19.435Z,14.98
2023-05-24T05:47:51.982Z,17.38
2023-05-24T05:48:24.406Z,15.30
2023-05-24T05:48:56.865Z,14.60
2023-05-24T05:49:29.382Z,16.15
2023-05-24T05:50:01.790Z,15.55
2023-05-24T05:50:34.371Z,14.97
2023-05-24T05:51:06.792Z,14.93
2023-05-24T05:51:39.433Z,15.50
2023-05-24T05:52:12.254Z,15.43
2023-05-24T05:52:45.049Z,15.40
2023-05-24T05:53:17.417Z,15.05
2023-05-24T05:53:49.801Z,17.58
2023-05-24T05:54:22.584Z,17.60
2023-05-24T05:54:55.096Z,14.82
2023-05-24T05:55:27.568Z,14.98
2023-05-24T05:55:59.990Z,14.90
2023-05-24T05:56:32.484Z,15.88
2023-05-24T05:57:05.144Z,15.55
2023-05-24T05:57:37.513Z,14.90
2023-05-24T05:58:09.886Z,14.38
2023-05-24T05:58:42.476Z,14.40
2023-05-24T05:59:16.001Z,15.10
2023-05-24T05:59:48.395Z,16.00
2023-05-24T06:00:22.300Z,15.02
2023-05-24T06:00:54.656Z,14.48
2023-05-24T06:01:27.015Z,16.03
2023-05-24T06:01:59.625Z,14.75
2023-05-24T06:02:32.200Z,14.55
2023-05-24T06:03:04.624Z,16.40
2023-05-24T06:03:37.322Z,15.02
2023-05-24T06:04:10.855Z,13.93
2023-05-24T06:04:43.277Z,14.30
2023-05-24T06:05:16.233Z,15.38
2023-05-24T06:05:48.810Z,16.63
2023-05-24T06:06:21.130Z,15.52
2023-05-24T06:06:53.654Z,15.43
2023-05-24T06:07:26.132Z,17.30
2023-05-24T06:07:58.628Z,16.42
2023-05-24T06:08:35.260Z,17.02
2023-05-24T06:09:08.058Z,16.05
2023-05-24T06:09:40.451Z,14.10
2023-05-24T06:10:12.897Z,14.45
2023-05-24T06:10:45.648Z,15.70
2023-05-24T06:11:17.997Z,14.88
2023-05-24T06:11:50.329Z,15.60
2023-05-24T06:12:22.991Z,13.93
2023-05-24T06:12:55.359Z,13.30
2023-05-24T06:13:32.629Z,13.68
2023-05-24T06:14:05.611Z,13.05
2023-05-24T06:14:38.690Z,12.43
2023-05-24T06:15:11.201Z,13.27
2023-05-24T06:15:43.809Z,12.52
2023-05-24T06:16:16.241Z,12.68
2023-05-24T06:16:48.677Z,14.27
2023-05-24T06:17:24.446Z,17.27
2023-05-24T06:17:57.063Z,13.37
2023-05-24T06:18:30.730Z,13.57
2023-05-24T06:19:06.470Z,13.18
2023-05-24T06:19:39.202Z,14.00
2023-05-24T06:20:15.885Z,14.20
2023-05-24T06:20:49.486Z,12.63
2023-05-24T06:21:21.926Z,13.52
2023-05-24T06:21:54.303Z,12.75
2023-05-24T06:22:28.692Z,13.10
2023-05-24T06:23:01.644Z,13.70
2023-05-24T06:23:33.987Z,14.93
2023-05-24T06:24:09.968Z,12.85
2023-05-24T06:24:42.461Z,16.73
2023-05-24T06:25:15.605Z,13.43
2023-05-24T06:25:48.108Z,13.35
2023-05-24T06:26:21.658Z,13.13
2023-05-24T06:26:54.654Z,15.10
2023-05-24T06:27:27.201Z,13.18
2023-05-24T06:27:59.648Z,12.65
2023-05-24T06:28:32.184Z,14.20
2023-05-24T06:29:04.513Z,13.77
2023-05-24T06:29:37.461Z,16.73
2023-05-24T06:30:10.133Z,13.10
2023-05-24T06:30:42.919Z,15.05
2023-05-24T06:31:15.620Z,13.73
2023-05-24T06:31:49.138Z,12.93
2023-05-24T06:32:21.626Z,13.73
2023-05-24T06:32:54.115Z,12.90
2023-05-24T06:33:28.104Z,14.68
2023-05-24T06:34:03.727Z,13.20
2023-05-24T06:34:36.843Z,13.00
2023-05-24T06:35:09.854Z,14.68
2023-05-24T06:35:42.226Z,12.82
2023-05-24T06:36:14.556Z,14.90
2023-05-24T06:36:48.819Z,11.73
2023-05-24T06:37:25.785Z,12.43
2023-05-24T06:37:58.260Z,13.57
2023-05-24T06:38:33.139Z,13.93
2023-05-24T06:39:05.936Z,13.18
2023-05-24T06:39:38.245Z,13.23
2023-05-24T06:40:11.329Z,14.50
2023-05-24T06:40:43.907Z,13.20
2023-05-24T06:41:16.567Z,13.05
2023-05-24T06:41:51.494Z,13.00
2023-05-24T06:42:29.991Z,14.52
2023-05-24T06:43:02.414Z,13.15
2023-05-24T06:43:34.901Z,12.75
2023-05-24T06:44:07.378Z,13.38
2023-05-24T06:44:40.029Z,13.60
2023-05-24T06:45:12.601Z,13.70
2023-05-24T06:45:44.933Z,14.47
2023-05-24T06:46:17.302Z,13.65
2023-05-24T06:46:49.815Z,12.98
2023-05-24T06:47:22.822Z,12.52
2023-05-24T06:47:55.454Z,13.98
2023-05-24T06:48:28.067Z,13.60
2023-05-24T06:49:00.965Z,13.70
2023-05-24T06:49:33.821Z,13.68
2023-05-24T06:50:06.691Z,12.70
2023-05-24T06:50:41.637Z,13.18
2023-05-24T06:51:14.966Z,13.30
2023-05-24T06:51:48.096Z,12.68
2023-05-24T06:52:20.399Z,13.30
2023-05-24T06:52:52.766Z,13.38
2023-05-24T06:53:25.072Z,12.25
2023-05-24T06:53:58.203Z,13.30
2023-05-24T06:54:30.489Z,12.90
2023-05-24T06:55:03.043Z,12.15
2023-05-24T06:55:35.741Z,12.52
2023-05-24T06:56:09.676Z,12.45
2023-05-24T06:56:42.459Z,12.17
2023-05-24T06:57:14.765Z,13.23
2023-05-24T06:57:47.060Z,14.25
2023-05-24T06:58:19.434Z,13.32
2023-05-24T06:58:52.017Z,11.38
2023-05-24T06:59:24.441Z,11.70
2023-05-24T06:59:57.309Z,12.60
2023-05-24T07:00:29.795Z,14.32
2023-05-24T07:01:02.804Z,12.60
2023-05-24T07:01:36.147Z,11.75
2023-05-24T07:02:09.299Z,12.83
2023-05-24T07:02:42.176Z,12.25
2023-05-24T07:03:14.786Z,12.13
2023-05-24T07:03:47.207Z,11.88
2023-05-24T07:04:20.381Z,11.88
2023-05-24T07:04:52.894Z,13.55
2023-05-24T07:05:25.312Z,12.63
2023-05-24T07:05:58.210Z,12.23
2023-05-24T07:06:31.002Z,11.38
2023-05-24T07:07:03.356Z,12.95
2023-05-24T07:07:36.132Z,12.60
2023-05-24T07:08:09.775Z,13.05
2023-05-24T07:08:42.432Z,12.18
2023-05-24T07:09:15.168Z,12.57
2023-05-24T07:09:47.968Z,11.10
2023-05-24T07:10:20.289Z,11.75
2023-05-24T07:10:53.792Z,12.73
2023-05-24T07:11:26.209Z,13.48